sensor_id;sensor_type;location;lat;lon;timestamp;temperature;humidity
10443;DHT22;5269;51.146;16.986;2022-12-18T00:02:00;-5.00;99.90
10443;DHT22;5269;51.146;16.986;2022-12-18T00:04:27;-5.00;99.90
10443;DHT22;5269;51.146;16.986;2022-12-18T00:06:54;-5.00;99.90
10443;DHT22;5269;51.146;16.986;2022-12-18T00:09:21;-5.00;99.90
10443;DHT22;5269;51.146;16.986;2022-12-18T00:11:48;-5.00;99.90
10443;DHT22;5269;51.146;16.986;2022-12-18T00:14:17;-4.90;99.90
10443;DHT22;5269;51.146;16.986;2022-12-18T00:16:45;-4.90;99.90
10443;DHT22;5269;51.146;16.986;2022-12-18T00:19:12;-4.90;99.90
10443;DHT22;5269;51.146;16.986;2022-12-18T00:21:39;-4.90;99.90
10443;DHT22;5269;51.146;16.986;2022-12-18T00:24:06;-4.90;99.90
10443;DHT22;5269;51.146;16.986;2022-12-18T00:26:34;-4.80;99.90
10443;DHT22;5269;51.146;16.986;2022-12-18T00:29:04;-4.90;99.90
10443;DHT22;5269;51.146;16.986;2022-12-18T00:31:36;-4.90;99.90
10443;DHT22;5269;51.146;16.986;2022-12-18T00:34:04;-4.90;99.90
10443;DHT22;5269;51.146;16.986;2022-12-18T00:36:32;-4.90;99.90
10443;DHT22;5269;51.146;16.986;2022-12-18T00:39:01;-4.90;99.90
10443;DHT22;5269;51.146;16.986;2022-12-18T00:41:28;-4.90;99.90
10443;DHT22;5269;51.146;16.986;2022-12-18T00:44:15;-4.80;99.90
10443;DHT22;5269;51.146;16.986;2022-12-18T00:46:45;-4.80;99.90
10443;DHT22;5269;51.146;16.986;2022-12-18T00:49:12;-4.80;99.90
10443;DHT22;5269;51.146;16.986;2022-12-18T00:51:39;-4.80;99.90
10443;DHT22;5269;51.146;16.986;2022-12-18T00:54:06;-4.80;99.90
10443;DHT22;5269;51.146;16.986;2022-12-18T00:56:34;-4.80;99.90
10443;DHT22;5269;51.146;16.986;2022-12-18T00:59:01;-4.70;99.90
10443;DHT22;5269;51.146;16.986;2022-12-18T01:01:28;-4.70;99.90
10443;DHT22;5269;51.146;16.986;2022-12-18T01:03:56;-4.60;99.90
10443;DHT22;5269;51.146;16.986;2022-12-18T01:06:23;-4.50;99.90
10443;DHT22;5269;51.146;16.986;2022-12-18T01:08:50;-4.50;99.90
10443;DHT22;5269;51.146;16.986;2022-12-18T01:11:19;-4.60;99.90
10443;DHT22;5269;51.146;16.986;2022-12-18T01:13:46;-4.60;99.90
10443;DHT22;5269;51.146;16.986;2022-12-18T01:16:13;-4.60;99.90
10443;DHT22;5269;51.146;16.986;2022-12-18T01:18:41;-4.60;99.90
10443;DHT22;5269;51.146;16.986;2022-12-18T01:21:11;-4.70;99.90
10443;DHT22;5269;51.146;16.986;2022-12-18T01:23:38;-4.60;99.90
10443;DHT22;5269;51.146;16.986;2022-12-18T01:26:07;-4.60;99.90
10443;DHT22;5269;51.146;16.986;2022-12-18T01:28:34;-4.50;99.90
10443;DHT22;5269;51.146;16.986;2022-12-18T01:31:13;-4.50;99.90
10443;DHT22;5269;51.146;16.986;2022-12-18T01:33:41;-4.50;99.90
10443;DHT22;5269;51.146;16.986;2022-12-18T01:36:13;-4.50;99.90
10443;DHT22;5269;51.146;16.986;2022-12-18T01:38:40;-4.50;99.90
10443;DHT22;5269;51.146;16.986;2022-12-18T01:41:08;-4.50;99.90
10443;DHT22;5269;51.146;16.986;2022-12-18T01:43:50;-4.50;99.90
10443;DHT22;5269;51.146;16.986;2022-12-18T01:46:18;-4.50;99.90
10443;DHT22;5269;51.146;16.986;2022-12-18T01:48:47;-4.50;99.90
10443;DHT22;5269;51.146;16.986;2022-12-18T01:51:16;-4.50;99.90
10443;DHT22;5269;51.146;16.986;2022-12-18T01:53:44;-4.50;99.90
10443;DHT22;5269;51.146;16.986;2022-12-18T01:56:16;-4.40;99.90
10443;DHT22;5269;51.146;16.986;2022-12-18T01:58:50;-4.40;99.90
10443;DHT22;5269;51.146;16.986;2022-12-18T02:01:20;-4.40;99.90
10443;DHT22;5269;51.146;16.986;2022-12-18T02:03:47;-4.40;99.90
10443;DHT22;5269;51.146;16.986;2022-12-18T02:06:20;-4.40;99.90
10443;DHT22;5269;51.146;16.986;2022-12-18T02:09:04;-4.40;99.90
10443;DHT22;5269;51.146;16.986;2022-12-18T02:11:40;-4.40;99.90
10443;DHT22;5269;51.146;16.986;2022-12-18T02:14:18;-4.40;99.90
10443;DHT22;5269;51.146;16.986;2022-12-18T02:16:52;-4.30;99.90
10443;DHT22;5269;51.146;16.986;2022-12-18T02:19:52;-4.30;99.90
10443;DHT22;5269;51.146;16.986;2022-12-18T02:22:29;-4.30;99.90
10443;DHT22;5269;51.146;16.986;2022-12-18T02:25:13;-4.30;99.90
10443;DHT22;5269;51.146;16.986;2022-12-18T02:27:47;-4.30;99.90
10443;DHT22;5269;51.146;16.986;2022-12-18T02:30:16;-4.30;99.90
10443;DHT22;5269;51.146;16.986;2022-12-18T02:32:47;-4.30;99.90
10443;DHT22;5269;51.146;16.986;2022-12-18T02:35:20;-4.30;99.90
10443;DHT22;5269;51.146;16.986;2022-12-18T02:37:47;-4.30;99.90
10443;DHT22;5269;51.146;16.986;2022-12-18T02:40:15;-4.20;99.90
10443;DHT22;5269;51.146;16.986;2022-12-18T02:42:43;-4.10;99.90
10443;DHT22;5269;51.146;16.986;2022-12-18T02:45:11;-4.20;99.90
10443;DHT22;5269;51.146;16.986;2022-12-18T02:47:40;-4.20;99.90
10443;DHT22;5269;51.146;16.986;2022-12-18T02:50:16;-4.20;99.90
10443;DHT22;5269;51.146;16.986;2022-12-18T02:52:51;-4.30;99.90
10443;DHT22;5269;51.146;16.986;2022-12-18T02:55:28;-4.20;99.90
10443;DHT22;5269;51.146;16.986;2022-12-18T02:58:04;-4.20;99.90
10443;DHT22;5269;51.146;16.986;2022-12-18T03:00:37;-4.20;99.90
10443;DHT22;5269;51.146;16.986;2022-12-18T03:03:07;-4.30;99.90
10443;DHT22;5269;51.146;16.986;2022-12-18T03:05:40;-4.20;99.90
10443;DHT22;5269;51.146;16.986;2022-12-18T03:08:10;-4.20;99.90
10443;DHT22;5269;51.146;16.986;2022-12-18T03:10:44;-4.20;99.90
10443;DHT22;5269;51.146;16.986;2022-12-18T03:13:14;-4.20;99.90
10443;DHT22;5269;51.146;16.986;2022-12-18T03:15:48;-4.20;99.90
10443;DHT22;5269;51.146;16.986;2022-12-18T03:18:18;-4.20;99.90
10443;DHT22;5269;51.146;16.986;2022-12-18T03:20:47;-4.10;99.90
10443;DHT22;5269;51.146;16.986;2022-12-18T03:23:19;-4.00;99.90
10443;DHT22;5269;51.146;16.986;2022-12-18T03:25:49;-4.20;99.90
10443;DHT22;5269;51.146;16.986;2022-12-18T03:28:20;-4.20;99.90
10443;DHT22;5269;51.146;16.986;2022-12-18T03:30:53;-4.10;99.90
10443;DHT22;5269;51.146;16.986;2022-12-18T03:33:25;-4.00;99.90
10443;DHT22;5269;51.146;16.986;2022-12-18T03:35:54;-4.00;99.90
10443;DHT22;5269;51.146;16.986;2022-12-18T03:38:21;-4.10;99.90
10443;DHT22;5269;51.146;16.986;2022-12-18T03:40:58;-4.10;99.90
10443;DHT22;5269;51.146;16.986;2022-12-18T03:43:34;-4.20;99.90
10443;DHT22;5269;51.146;16.986;2022-12-18T03:46:07;-4.10;99.90
10443;DHT22;5269;51.146;16.986;2022-12-18T03:48:40;-4.00;99.90
10443;DHT22;5269;51.146;16.986;2022-12-18T03:51:11;-4.10;99.90
10443;DHT22;5269;51.146;16.986;2022-12-18T03:53:45;-4.10;99.90
10443;DHT22;5269;51.146;16.986;2022-12-18T03:56:16;-4.20;99.90
10443;DHT22;5269;51.146;16.986;2022-12-18T03:58:44;-4.20;99.90
10443;DHT22;5269;51.146;16.986;2022-12-18T04:01:15;-4.20;99.90
10443;DHT22;5269;51.146;16.986;2022-12-18T04:03:42;-4.20;99.90
10443;DHT22;5269;51.146;16.986;2022-12-18T04:06:13;-4.00;99.90
10443;DHT22;5269;51.146;16.986;2022-12-18T04:08:41;-4.00;99.90
10443;DHT22;5269;51.146;16.986;2022-12-18T04:11:08;-4.00;99.90
10443;DHT22;5269;51.146;16.986;2022-12-18T04:13:37;-4.10;99.90
10443;DHT22;5269;51.146;16.986;2022-12-18T04:16:04;-4.00;99.90
10443;DHT22;5269;51.146;16.986;2022-12-18T04:18:33;-4.00;99.90
10443;DHT22;5269;51.146;16.986;2022-12-18T04:21:00;-3.90;99.90
10443;DHT22;5269;51.146;16.986;2022-12-18T04:23:27;-3.80;99.90
10443;DHT22;5269;51.146;16.986;2022-12-18T04:25:54;-3.90;99.90
10443;DHT22;5269;51.146;16.986;2022-12-18T04:28:21;-4.00;99.90
10443;DHT22;5269;51.146;16.986;2022-12-18T04:30:48;-4.00;99.90
10443;DHT22;5269;51.146;16.986;2022-12-18T04:33:15;-4.00;99.90
10443;DHT22;5269;51.146;16.986;2022-12-18T04:35:44;-4.10;99.90
10443;DHT22;5269;51.146;16.986;2022-12-18T04:38:11;-4.10;99.90
10443;DHT22;5269;51.146;16.986;2022-12-18T04:40:38;-3.90;99.90
10443;DHT22;5269;51.146;16.986;2022-12-18T04:43:08;-3.90;99.90
10443;DHT22;5269;51.146;16.986;2022-12-18T04:45:35;-3.90;99.90
10443;DHT22;5269;51.146;16.986;2022-12-18T04:48:05;-3.80;99.90
10443;DHT22;5269;51.146;16.986;2022-12-18T04:50:32;-3.90;99.90
10443;DHT22;5269;51.146;16.986;2022-12-18T04:53:00;-4.10;99.90
10443;DHT22;5269;51.146;16.986;2022-12-18T04:55:27;-4.10;99.90
10443;DHT22;5269;51.146;16.986;2022-12-18T04:57:54;-4.00;99.90
10443;DHT22;5269;51.146;16.986;2022-12-18T05:00:22;-4.10;99.90
10443;DHT22;5269;51.146;16.986;2022-12-18T05:02:48;-4.10;99.90
10443;DHT22;5269;51.146;16.986;2022-12-18T05:05:16;-4.10;99.90
10443;DHT22;5269;51.146;16.986;2022-12-18T05:07:42;-4.10;99.90
10443;DHT22;5269;51.146;16.986;2022-12-18T05:10:11;-4.00;99.90
10443;DHT22;5269;51.146;16.986;2022-12-18T05:12:38;-3.90;99.90
10443;DHT22;5269;51.146;16.986;2022-12-18T05:15:27;-3.90;99.90
10443;DHT22;5269;51.146;16.986;2022-12-18T05:17:54;-4.00;99.90
10443;DHT22;5269;51.146;16.986;2022-12-18T05:20:21;-4.00;99.90
10443;DHT22;5269;51.146;16.986;2022-12-18T05:22:48;-4.00;99.90
10443;DHT22;5269;51.146;16.986;2022-12-18T05:25:16;-3.90;99.90
10443;DHT22;5269;51.146;16.986;2022-12-18T05:27:43;-4.00;99.90
10443;DHT22;5269;51.146;16.986;2022-12-18T05:30:11;-4.10;99.90
10443;DHT22;5269;51.146;16.986;2022-12-18T05:32:39;-4.10;99.90
10443;DHT22;5269;51.146;16.986;2022-12-18T05:35:08;-4.10;99.90
10443;DHT22;5269;51.146;16.986;2022-12-18T05:37:35;-4.10;99.90
10443;DHT22;5269;51.146;16.986;2022-12-18T05:40:03;-4.10;99.90
10443;DHT22;5269;51.146;16.986;2022-12-18T05:42:31;-4.10;99.90
10443;DHT22;5269;51.146;16.986;2022-12-18T05:44:58;-4.20;99.90
10443;DHT22;5269;51.146;16.986;2022-12-18T05:47:26;-4.20;99.90
10443;DHT22;5269;51.146;16.986;2022-12-18T05:49:54;-4.20;99.90
10443;DHT22;5269;51.146;16.986;2022-12-18T05:52:21;-4.10;99.90
10443;DHT22;5269;51.146;16.986;2022-12-18T05:54:48;-4.10;99.90
10443;DHT22;5269;51.146;16.986;2022-12-18T05:57:15;-4.20;99.90
10443;DHT22;5269;51.146;16.986;2022-12-18T05:59:43;-4.20;99.90
10443;DHT22;5269;51.146;16.986;2022-12-18T06:02:10;-4.20;99.90
10443;DHT22;5269;51.146;16.986;2022-12-18T06:04:37;-4.20;99.90
10443;DHT22;5269;51.146;16.986;2022-12-18T06:07:03;-4.20;99.90
10443;DHT22;5269;51.146;16.986;2022-12-18T06:09:30;-4.20;99.90
10443;DHT22;5269;51.146;16.986;2022-12-18T06:11:57;-4.20;99.90
10443;DHT22;5269;51.146;16.986;2022-12-18T06:14:24;-4.20;99.90
10443;DHT22;5269;51.146;16.986;2022-12-18T06:16:52;-4.20;99.90
10443;DHT22;5269;51.146;16.986;2022-12-18T06:19:19;-4.20;99.90
10443;DHT22;5269;51.146;16.986;2022-12-18T06:21:46;-4.20;99.90
10443;DHT22;5269;51.146;16.986;2022-12-18T06:24:14;-4.20;99.90
10443;DHT22;5269;51.146;16.986;2022-12-18T06:26:41;-4.10;99.90
10443;DHT22;5269;51.146;16.986;2022-12-18T06:29:08;-4.00;99.90
10443;DHT22;5269;51.146;16.986;2022-12-18T06:31:35;-4.10;99.90
10443;DHT22;5269;51.146;16.986;2022-12-18T06:34:04;-4.00;99.90
10443;DHT22;5269;51.146;16.986;2022-12-18T06:36:31;-4.10;99.90
10443;DHT22;5269;51.146;16.986;2022-12-18T06:38:58;-4.10;99.90
10443;DHT22;5269;51.146;16.986;2022-12-18T06:41:25;-4.10;99.90
10443;DHT22;5269;51.146;16.986;2022-12-18T06:43:52;-4.00;99.90
10443;DHT22;5269;51.146;16.986;2022-12-18T06:46:19;-4.10;99.90
10443;DHT22;5269;51.146;16.986;2022-12-18T06:48:47;-4.10;99.90
10443;DHT22;5269;51.146;16.986;2022-12-18T06:51:18;-4.20;99.90
10443;DHT22;5269;51.146;16.986;2022-12-18T06:53:45;-4.20;99.90
10443;DHT22;5269;51.146;16.986;2022-12-18T06:56:12;-4.30;99.90
10443;DHT22;5269;51.146;16.986;2022-12-18T06:58:39;-4.40;99.90
10443;DHT22;5269;51.146;16.986;2022-12-18T07:01:10;-4.40;99.90
10443;DHT22;5269;51.146;16.986;2022-12-18T07:03:38;-4.30;99.90
10443;DHT22;5269;51.146;16.986;2022-12-18T07:06:05;-4.30;99.90
10443;DHT22;5269;51.146;16.986;2022-12-18T07:08:34;-4.30;99.90
10443;DHT22;5269;51.146;16.986;2022-12-18T07:11:03;-4.30;99.90
10443;DHT22;5269;51.146;16.986;2022-12-18T07:13:31;-4.20;99.90
10443;DHT22;5269;51.146;16.986;2022-12-18T07:16:07;-4.20;99.90
10443;DHT22;5269;51.146;16.986;2022-12-18T07:18:34;-4.30;99.90
10443;DHT22;5269;51.146;16.986;2022-12-18T07:21:04;-4.30;99.90
10443;DHT22;5269;51.146;16.986;2022-12-18T07:23:34;-4.20;99.90
10443;DHT22;5269;51.146;16.986;2022-12-18T07:26:06;-4.40;99.90
10443;DHT22;5269;51.146;16.986;2022-12-18T07:28:33;-4.40;99.90
10443;DHT22;5269;51.146;16.986;2022-12-18T07:31:03;-4.40;99.90
10443;DHT22;5269;51.146;16.986;2022-12-18T07:33:33;-4.30;99.90
10443;DHT22;5269;51.146;16.986;2022-12-18T07:36:00;-4.30;99.90
10443;DHT22;5269;51.146;16.986;2022-12-18T07:38:27;-4.40;99.90
10443;DHT22;5269;51.146;16.986;2022-12-18T07:41:00;-4.40;99.90
10443;DHT22;5269;51.146;16.986;2022-12-18T07:43:27;-4.30;99.90
10443;DHT22;5269;51.146;16.986;2022-12-18T07:45:54;-4.20;99.90
10443;DHT22;5269;51.146;16.986;2022-12-18T07:48:21;-4.10;99.90
10443;DHT22;5269;51.146;16.986;2022-12-18T07:50:48;-4.10;99.90
10443;DHT22;5269;51.146;16.986;2022-12-18T07:53:15;-4.10;99.90
10443;DHT22;5269;51.146;16.986;2022-12-18T07:55:44;-4.10;99.90
10443;DHT22;5269;51.146;16.986;2022-12-18T07:58:12;-4.10;99.90
10443;DHT22;5269;51.146;16.986;2022-12-18T08:00:39;-4.10;99.90
10443;DHT22;5269;51.146;16.986;2022-12-18T08:03:06;-4.10;99.90
10443;DHT22;5269;51.146;16.986;2022-12-18T08:05:33;-4.50;99.90
10443;DHT22;5269;51.146;16.986;2022-12-18T08:08:05;-4.40;99.90
10443;DHT22;5269;51.146;16.986;2022-12-18T08:10:32;-4.30;99.90
10443;DHT22;5269;51.146;16.986;2022-12-18T08:12:58;-4.10;99.90
10443;DHT22;5269;51.146;16.986;2022-12-18T08:15:27;-4.20;99.90
10443;DHT22;5269;51.146;16.986;2022-12-18T08:17:58;-4.00;99.90
10443;DHT22;5269;51.146;16.986;2022-12-18T08:20:27;-4.10;99.90
10443;DHT22;5269;51.146;16.986;2022-12-18T08:22:54;-4.10;99.90
10443;DHT22;5269;51.146;16.986;2022-12-18T08:25:25;-4.20;99.90
10443;DHT22;5269;51.146;16.986;2022-12-18T08:27:52;-4.20;99.90
10443;DHT22;5269;51.146;16.986;2022-12-18T08:30:19;-4.20;99.90
10443;DHT22;5269;51.146;16.986;2022-12-18T08:32:52;-4.10;99.90
10443;DHT22;5269;51.146;16.986;2022-12-18T08:35:19;-4.10;99.90
10443;DHT22;5269;51.146;16.986;2022-12-18T08:37:47;-4.10;99.90
10443;DHT22;5269;51.146;16.986;2022-12-18T08:40:14;-4.10;99.90
10443;DHT22;5269;51.146;16.986;2022-12-18T08:42:41;-4.10;99.90
10443;DHT22;5269;51.146;16.986;2022-12-18T08:45:25;-4.10;99.90
10443;DHT22;5269;51.146;16.986;2022-12-18T08:47:53;-4.00;99.90
10443;DHT22;5269;51.146;16.986;2022-12-18T08:50:20;-3.90;99.90
10443;DHT22;5269;51.146;16.986;2022-12-18T08:52:48;-3.80;99.90
10443;DHT22;5269;51.146;16.986;2022-12-18T08:55:15;-3.70;99.90
10443;DHT22;5269;51.146;16.986;2022-12-18T08:57:42;-3.70;99.90
10443;DHT22;5269;51.146;16.986;2022-12-18T09:00:11;-3.70;99.90
10443;DHT22;5269;51.146;16.986;2022-12-18T09:02:41;-3.60;99.90
10443;DHT22;5269;51.146;16.986;2022-12-18T09:05:09;-3.60;99.90
10443;DHT22;5269;51.146;16.986;2022-12-18T09:07:36;-3.40;99.90
10443;DHT22;5269;51.146;16.986;2022-12-18T09:10:06;-3.40;99.90
10443;DHT22;5269;51.146;16.986;2022-12-18T09:12:34;-3.40;99.90
10443;DHT22;5269;51.146;16.986;2022-12-18T09:15:01;-3.40;99.90
10443;DHT22;5269;51.146;16.986;2022-12-18T09:17:28;-3.50;99.90
10443;DHT22;5269;51.146;16.986;2022-12-18T09:20:00;-3.40;99.90
10443;DHT22;5269;51.146;16.986;2022-12-18T09:22:33;-3.40;99.90
10443;DHT22;5269;51.146;16.986;2022-12-18T09:25:03;-3.60;99.90
10443;DHT22;5269;51.146;16.986;2022-12-18T09:27:39;-3.60;99.90
10443;DHT22;5269;51.146;16.986;2022-12-18T09:30:08;-3.70;99.90
10443;DHT22;5269;51.146;16.986;2022-12-18T09:32:35;-3.50;99.90
10443;DHT22;5269;51.146;16.986;2022-12-18T09:35:02;-3.40;99.90
10443;DHT22;5269;51.146;16.986;2022-12-18T09:37:30;-3.30;99.90
10443;DHT22;5269;51.146;16.986;2022-12-18T09:39:57;-3.30;99.90
10443;DHT22;5269;51.146;16.986;2022-12-18T09:42:24;-3.40;99.90
10443;DHT22;5269;51.146;16.986;2022-12-18T09:44:55;-3.50;99.90
10443;DHT22;5269;51.146;16.986;2022-12-18T09:47:25;-3.50;99.90
10443;DHT22;5269;51.146;16.986;2022-12-18T09:50:01;-3.70;99.90
10443;DHT22;5269;51.146;16.986;2022-12-18T09:52:34;-3.60;99.90
10443;DHT22;5269;51.146;16.986;2022-12-18T09:55:09;-3.40;99.90
10443;DHT22;5269;51.146;16.986;2022-12-18T09:57:47;-3.30;99.90
10443;DHT22;5269;51.146;16.986;2022-12-18T10:00:18;-3.40;99.90
10443;DHT22;5269;51.146;16.986;2022-12-18T10:02:46;-3.70;99.90
10443;DHT22;5269;51.146;16.986;2022-12-18T10:05:15;-3.70;99.90
10443;DHT22;5269;51.146;16.986;2022-12-18T10:07:50;-3.80;99.90
10443;DHT22;5269;51.146;16.986;2022-12-18T10:10:35;-3.80;99.90
10443;DHT22;5269;51.146;16.986;2022-12-18T10:13:15;-3.80;99.90
10443;DHT22;5269;51.146;16.986;2022-12-18T10:15:58;-3.80;99.90
10443;DHT22;5269;51.146;16.986;2022-12-18T10:18:36;-3.60;99.90
10443;DHT22;5269;51.146;16.986;2022-12-18T10:21:10;-3.60;99.90
10443;DHT22;5269;51.146;16.986;2022-12-18T10:23:45;-3.50;99.90
10443;DHT22;5269;51.146;16.986;2022-12-18T10:26:14;-3.40;99.90
10443;DHT22;5269;51.146;16.986;2022-12-18T10:28:41;-3.20;99.90
10443;DHT22;5269;51.146;16.986;2022-12-18T10:31:15;-3.30;99.90
10443;DHT22;5269;51.146;16.986;2022-12-18T10:33:42;-3.50;99.90
10443;DHT22;5269;51.146;16.986;2022-12-18T10:36:09;-3.70;99.90
10443;DHT22;5269;51.146;16.986;2022-12-18T10:38:37;-4.00;99.90
10443;DHT22;5269;51.146;16.986;2022-12-18T10:41:08;-4.00;99.90
10443;DHT22;5269;51.146;16.986;2022-12-18T10:44:11;-4.10;99.90
10443;DHT22;5269;51.146;16.986;2022-12-18T10:46:39;-3.90;99.90
10443;DHT22;5269;51.146;16.986;2022-12-18T10:49:18;-3.80;99.90
10443;DHT22;5269;51.146;16.986;2022-12-18T10:51:46;-3.80;99.90
10443;DHT22;5269;51.146;16.986;2022-12-18T10:54:15;-3.90;99.90
10443;DHT22;5269;51.146;16.986;2022-12-18T10:56:45;-3.80;99.90
10443;DHT22;5269;51.146;16.986;2022-12-18T10:59:13;-3.70;99.90
10443;DHT22;5269;51.146;16.986;2022-12-18T11:01:51;-3.70;99.90
10443;DHT22;5269;51.146;16.986;2022-12-18T11:04:21;-3.80;99.90
10443;DHT22;5269;51.146;16.986;2022-12-18T11:06:57;-4.00;99.90
10443;DHT22;5269;51.146;16.986;2022-12-18T11:09:26;-3.90;99.90
10443;DHT22;5269;51.146;16.986;2022-12-18T11:11:56;-3.90;99.90
10443;DHT22;5269;51.146;16.986;2022-12-18T11:14:28;-3.90;99.90
10443;DHT22;5269;51.146;16.986;2022-12-18T11:16:59;-3.70;99.90
10443;DHT22;5269;51.146;16.986;2022-12-18T11:19:32;-3.70;99.90
10443;DHT22;5269;51.146;16.986;2022-12-18T11:22:01;-3.60;99.90
10443;DHT22;5269;51.146;16.986;2022-12-18T11:24:30;-3.50;99.90
10443;DHT22;5269;51.146;16.986;2022-12-18T11:27:01;-3.50;99.90
10443;DHT22;5269;51.146;16.986;2022-12-18T11:29:44;-3.40;99.90
10443;DHT22;5269;51.146;16.986;2022-12-18T11:32:37;-3.30;99.90
10443;DHT22;5269;51.146;16.986;2022-12-18T11:35:32;-3.20;99.90
10443;DHT22;5269;51.146;16.986;2022-12-18T11:38:10;-3.10;99.90
10443;DHT22;5269;51.146;16.986;2022-12-18T11:40:52;-3.10;99.90
10443;DHT22;5269;51.146;16.986;2022-12-18T11:43:33;-3.30;99.90
10443;DHT22;5269;51.146;16.986;2022-12-18T11:46:12;-3.30;99.90
10443;DHT22;5269;51.146;16.986;2022-12-18T11:48:48;-3.30;99.90
10443;DHT22;5269;51.146;16.986;2022-12-18T11:51:25;-3.50;99.90
10443;DHT22;5269;51.146;16.986;2022-12-18T11:53:56;-3.60;99.90
10443;DHT22;5269;51.146;16.986;2022-12-18T11:56:39;-3.50;99.90
10443;DHT22;5269;51.146;16.986;2022-12-18T11:59:18;-3.30;99.90
10443;DHT22;5269;51.146;16.986;2022-12-18T12:01:54;-3.10;99.90
10443;DHT22;5269;51.146;16.986;2022-12-18T12:07:47;-2.90;99.90
10443;DHT22;5269;51.146;16.986;2022-12-18T12:10:38;-2.80;99.90
10443;DHT22;5269;51.146;16.986;2022-12-18T12:13:27;-2.90;99.90
10443;DHT22;5269;51.146;16.986;2022-12-18T12:16:05;-2.80;99.90
10443;DHT22;5269;51.146;16.986;2022-12-18T12:18:43;-3.00;99.90
10443;DHT22;5269;51.146;16.986;2022-12-18T12:21:20;-2.90;99.90
10443;DHT22;5269;51.146;16.986;2022-12-18T12:23:57;-3.10;99.90
10443;DHT22;5269;51.146;16.986;2022-12-18T12:26:33;-3.30;99.90
10443;DHT22;5269;51.146;16.986;2022-12-18T12:29:26;-3.40;99.90
10443;DHT22;5269;51.146;16.986;2022-12-18T12:32:17;-3.40;99.90
10443;DHT22;5269;51.146;16.986;2022-12-18T12:35:08;-3.60;99.90
10443;DHT22;5269;51.146;16.986;2022-12-18T12:37:54;-3.60;99.90
10443;DHT22;5269;51.146;16.986;2022-12-18T12:40:26;-3.80;99.90
10443;DHT22;5269;51.146;16.986;2022-12-18T12:43:01;-3.80;99.90
10443;DHT22;5269;51.146;16.986;2022-12-18T12:45:43;-3.70;99.90
10443;DHT22;5269;51.146;16.986;2022-12-18T12:48:23;-3.70;99.90
10443;DHT22;5269;51.146;16.986;2022-12-18T12:50:55;-3.70;99.90
10443;DHT22;5269;51.146;16.986;2022-12-18T12:53:29;-3.80;99.90
10443;DHT22;5269;51.146;16.986;2022-12-18T12:55:58;-3.70;99.90
10443;DHT22;5269;51.146;16.986;2022-12-18T12:58:31;-3.70;99.90
10443;DHT22;5269;51.146;16.986;2022-12-18T13:01:10;-3.50;99.90
10443;DHT22;5269;51.146;16.986;2022-12-18T13:03:54;-3.40;99.90
10443;DHT22;5269;51.146;16.986;2022-12-18T13:06:32;-3.70;99.90
10443;DHT22;5269;51.146;16.986;2022-12-18T13:09:02;-3.90;99.90
10443;DHT22;5269;51.146;16.986;2022-12-18T13:11:37;-3.90;99.90
10443;DHT22;5269;51.146;16.986;2022-12-18T13:14:34;-3.80;99.90
10443;DHT22;5269;51.146;16.986;2022-12-18T13:17:15;-3.90;99.90
10443;DHT22;5269;51.146;16.986;2022-12-18T13:19:44;-3.90;99.90
10443;DHT22;5269;51.146;16.986;2022-12-18T13:22:23;-3.80;99.90
10443;DHT22;5269;51.146;16.986;2022-12-18T13:24:52;-3.80;99.90
10443;DHT22;5269;51.146;16.986;2022-12-18T13:27:52;-3.70;99.90
10443;DHT22;5269;51.146;16.986;2022-12-18T13:30:49;-3.70;99.90
10443;DHT22;5269;51.146;16.986;2022-12-18T13:33:49;-3.80;99.90
10443;DHT22;5269;51.146;16.986;2022-12-18T13:36:27;-3.70;99.90
10443;DHT22;5269;51.146;16.986;2022-12-18T13:42:39;-3.60;99.90
10443;DHT22;5269;51.146;16.986;2022-12-18T13:45:44;-3.50;99.90
10443;DHT22;5269;51.146;16.986;2022-12-18T13:48:20;-3.50;99.90
10443;DHT22;5269;51.146;16.986;2022-12-18T13:50:57;-3.50;99.90
10443;DHT22;5269;51.146;16.986;2022-12-18T13:53:33;-3.60;99.90
10443;DHT22;5269;51.146;16.986;2022-12-18T13:56:02;-3.70;99.90
10443;DHT22;5269;51.146;16.986;2022-12-18T13:58:31;-3.70;99.90
10443;DHT22;5269;51.146;16.986;2022-12-18T14:00:58;-3.90;99.90
10443;DHT22;5269;51.146;16.986;2022-12-18T14:03:28;-3.80;99.90
10443;DHT22;5269;51.146;16.986;2022-12-18T14:06:03;-3.80;99.90
10443;DHT22;5269;51.146;16.986;2022-12-18T14:08:39;-4.00;99.90
10443;DHT22;5269;51.146;16.986;2022-12-18T14:11:19;-3.90;99.90
10443;DHT22;5269;51.146;16.986;2022-12-18T14:13:46;-3.90;99.90
10443;DHT22;5269;51.146;16.986;2022-12-18T14:16:15;-3.90;99.90
10443;DHT22;5269;51.146;16.986;2022-12-18T14:18:45;-3.90;99.90
10443;DHT22;5269;51.146;16.986;2022-12-18T14:21:19;-4.10;99.90
10443;DHT22;5269;51.146;16.986;2022-12-18T14:24:03;-4.10;99.90
10443;DHT22;5269;51.146;16.986;2022-12-18T14:26:31;-4.20;99.90
10443;DHT22;5269;51.146;16.986;2022-12-18T14:29:01;-4.30;99.90
10443;DHT22;5269;51.146;16.986;2022-12-18T14:31:29;-4.40;99.90
10443;DHT22;5269;51.146;16.986;2022-12-18T14:33:57;-4.40;99.90
10443;DHT22;5269;51.146;16.986;2022-12-18T14:36:25;-4.40;99.90
10443;DHT22;5269;51.146;16.986;2022-12-18T14:38:57;-4.50;99.90
10443;DHT22;5269;51.146;16.986;2022-12-18T14:41:27;-4.40;99.90
10443;DHT22;5269;51.146;16.986;2022-12-18T14:44:23;-4.40;99.90
10443;DHT22;5269;51.146;16.986;2022-12-18T14:46:54;-4.40;99.90
10443;DHT22;5269;51.146;16.986;2022-12-18T14:49:26;-4.40;99.90
10443;DHT22;5269;51.146;16.986;2022-12-18T14:51:56;-4.50;99.90
10443;DHT22;5269;51.146;16.986;2022-12-18T14:54:28;-4.60;99.90
10443;DHT22;5269;51.146;16.986;2022-12-18T14:57:30;-4.60;99.90
10443;DHT22;5269;51.146;16.986;2022-12-18T15:00:20;-4.60;99.90
10443;DHT22;5269;51.146;16.986;2022-12-18T15:03:00;-4.60;99.90
10443;DHT22;5269;51.146;16.986;2022-12-18T15:05:30;-4.70;99.90
10443;DHT22;5269;51.146;16.986;2022-12-18T15:08:00;-4.70;99.90
10443;DHT22;5269;51.146;16.986;2022-12-18T15:10:30;-4.70;99.90
10443;DHT22;5269;51.146;16.986;2022-12-18T15:13:23;-4.80;99.90
10443;DHT22;5269;51.146;16.986;2022-12-18T15:15:56;-4.90;99.90
10443;DHT22;5269;51.146;16.986;2022-12-18T15:18:29;-4.80;99.90
10443;DHT22;5269;51.146;16.986;2022-12-18T15:21:10;-4.90;99.90
10443;DHT22;5269;51.146;16.986;2022-12-18T15:23:47;-4.90;99.90
10443;DHT22;5269;51.146;16.986;2022-12-18T15:26:20;-4.90;99.90
10443;DHT22;5269;51.146;16.986;2022-12-18T15:28:49;-4.90;99.90
10443;DHT22;5269;51.146;16.986;2022-12-18T15:31:30;-4.90;99.90
10443;DHT22;5269;51.146;16.986;2022-12-18T15:34:12;-4.90;99.90
10443;DHT22;5269;51.146;16.986;2022-12-18T15:36:39;-4.90;99.90
10443;DHT22;5269;51.146;16.986;2022-12-18T15:39:09;-4.90;99.90
10443;DHT22;5269;51.146;16.986;2022-12-18T15:41:41;-4.90;99.90
10443;DHT22;5269;51.146;16.986;2022-12-18T15:44:31;-4.90;99.90
10443;DHT22;5269;51.146;16.986;2022-12-18T15:47:00;-4.90;99.90
10443;DHT22;5269;51.146;16.986;2022-12-18T15:49:27;-5.00;99.90
10443;DHT22;5269;51.146;16.986;2022-12-18T15:51:56;-5.10;99.90
10443;DHT22;5269;51.146;16.986;2022-12-18T15:54:23;-5.00;99.90
10443;DHT22;5269;51.146;16.986;2022-12-18T15:57:11;-5.00;99.90
10443;DHT22;5269;51.146;16.986;2022-12-18T15:59:56;-5.00;99.90
10443;DHT22;5269;51.146;16.986;2022-12-18T16:02:26;-5.10;99.90
10443;DHT22;5269;51.146;16.986;2022-12-18T16:04:53;-5.20;99.90
10443;DHT22;5269;51.146;16.986;2022-12-18T16:07:21;-5.30;99.90